sensor_id;sensor_type;location;lat;lon;timestamp;P1;durP1;ratioP1;P2;durP2;ratioP2
53151;SDS011;39234;53.158;6.322;2022-08-06T00:01:08;6.90;;;1.42;;
53151;SDS011;39234;53.158;6.322;2022-08-06T00:03:34;4.03;;;1.30;;
53151;SDS011;39234;53.158;6.322;2022-08-06T00:06:00;4.15;;;1.50;;
53151;SDS011;39234;53.158;6.322;2022-08-06T00:08:25;5.95;;;1.27;;
53151;SDS011;39234;53.158;6.322;2022-08-06T00:10:55;7.55;;;1.83;;
53151;SDS011;39234;53.158;6.322;2022-08-06T00:13:21;7.38;;;1.63;;
53151;SDS011;39234;53.158;6.322;2022-08-06T00:15:46;5.00;;;1.77;;
53151;SDS011;39234;53.158;6.322;2022-08-06T00:18:14;5.13;;;1.50;;
53151;SDS011;39234;53.158;6.322;2022-08-06T00:20:39;3.45;;;1.45;;
53151;SDS011;39234;53.158;6.322;2022-08-06T00:23:05;3.88;;;1.30;;
53151;SDS011;39234;53.158;6.322;2022-08-06T00:25:34;2.92;;;1.17;;
53151;SDS011;39234;53.158;6.322;2022-08-06T00:28:00;2.78;;;1.30;;
53151;SDS011;39234;53.158;6.322;2022-08-06T00:30:26;3.55;;;1.38;;
53151;SDS011;39234;53.158;6.322;2022-08-06T00:32:51;4.22;;;1.02;;
53151;SDS011;39234;53.158;6.322;2022-08-06T00:35:17;5.72;;;1.60;;
53151;SDS011;39234;53.158;6.322;2022-08-06T00:37:46;4.35;;;1.40;;
53151;SDS011;39234;53.158;6.322;2022-08-06T00:40:12;4.63;;;1.30;;
53151;SDS011;39234;53.158;6.322;2022-08-06T00:42:40;5.07;;;1.38;;
53151;SDS011;39234;53.158;6.322;2022-08-06T00:45:06;5.60;;;1.30;;
53151;SDS011;39234;53.158;6.322;2022-08-06T00:47:33;6.82;;;1.50;;
53151;SDS011;39234;53.158;6.322;2022-08-06T00:49:58;6.30;;;1.23;;
53151;SDS011;39234;53.158;6.322;2022-08-06T00:52:24;4.97;;;1.27;;
53151;SDS011;39234;53.158;6.322;2022-08-06T00:54:50;4.13;;;1.25;;
53151;SDS011;39234;53.158;6.322;2022-08-06T00:57:16;4.30;;;1.40;;
53151;SDS011;39234;53.158;6.322;2022-08-06T00:59:41;2.80;;;0.98;;
53151;SDS011;39234;53.158;6.322;2022-08-06T01:02:07;4.63;;;1.52;;
53151;SDS011;39234;53.158;6.322;2022-08-06T01:04:33;5.50;;;1.20;;
53151;SDS011;39234;53.158;6.322;2022-08-06T01:06:58;3.85;;;1.38;;
53151;SDS011;39234;53.158;6.322;2022-08-06T01:09:25;4.93;;;1.30;;
53151;SDS011;39234;53.158;6.322;2022-08-06T01:11:50;3.05;;;1.15;;
53151;SDS011;39234;53.158;6.322;2022-08-06T01:14:16;4.15;;;1.20;;
53151;SDS011;39234;53.158;6.322;2022-08-06T01:16:54;4.20;;;1.30;;
53151;SDS011;39234;53.158;6.322;2022-08-06T01:30:08;3.53;;;1.40;;
53151;SDS011;39234;53.158;6.322;2022-08-06T01:32:57;4.47;;;1.40;;
53151;SDS011;39234;53.158;6.322;2022-08-06T01:35:30;2.97;;;1.20;;
53151;SDS011;39234;53.158;6.322;2022-08-06T01:38:10;7.70;;;1.90;;
53151;SDS011;39234;53.158;6.322;2022-08-06T01:40:39;4.00;;;1.60;;
53151;SDS011;39234;53.158;6.322;2022-08-06T01:43:08;2.97;;;1.40;;
53151;SDS011;39234;53.158;6.322;2022-08-06T01:45:38;3.45;;;1.45;;
53151;SDS011;39234;53.158;6.322;2022-08-06T01:48:14;7.20;;;1.50;;
53151;SDS011;39234;53.158;6.322;2022-08-06T01:50:45;3.53;;;1.42;;
53151;SDS011;39234;53.158;6.322;2022-08-06T01:53:14;2.40;;;1.30;;
53151;SDS011;39234;53.158;6.322;2022-08-06T01:55:45;4.32;;;1.38;;
53151;SDS011;39234;53.158;6.322;2022-08-06T01:58:15;4.25;;;1.40;;
53151;SDS011;39234;53.158;6.322;2022-08-06T02:00:46;7.22;;;1.40;;
53151;SDS011;39234;53.158;6.322;2022-08-06T02:03:14;3.55;;;1.40;;
53151;SDS011;39234;53.158;6.322;2022-08-06T02:05:53;3.72;;;1.08;;
53151;SDS011;39234;53.158;6.322;2022-08-06T02:08:22;7.57;;;1.75;;
53151;SDS011;39234;53.158;6.322;2022-08-06T02:10:52;7.30;;;1.55;;
53151;SDS011;39234;53.158;6.322;2022-08-06T02:13:19;2.92;;;1.50;;
53151;SDS011;39234;53.158;6.322;2022-08-06T02:15:47;4.80;;;2.05;;
53151;SDS011;39234;53.158;6.322;2022-08-06T02:18:14;2.95;;;1.60;;
53151;SDS011;39234;53.158;6.322;2022-08-06T02:20:43;6.15;;;1.88;;
53151;SDS011;39234;53.158;6.322;2022-08-06T02:23:17;5.20;;;2.13;;
53151;SDS011;39234;53.158;6.322;2022-08-06T02:25:46;6.03;;;1.85;;
53151;SDS011;39234;53.158;6.322;2022-08-06T02:28:14;4.38;;;2.10;;
53151;SDS011;39234;53.158;6.322;2022-08-06T02:30:43;4.10;;;1.75;;
53151;SDS011;39234;53.158;6.322;2022-08-06T02:33:11;3.85;;;1.73;;
53151;SDS011;39234;53.158;6.322;2022-08-06T02:35:47;5.03;;;1.83;;
53151;SDS011;39234;53.158;6.322;2022-08-06T02:38:17;3.35;;;1.75;;
53151;SDS011;39234;53.158;6.322;2022-08-06T02:40:50;2.90;;;1.80;;
53151;SDS011;39234;53.158;6.322;2022-08-06T02:43:30;5.65;;;2.20;;
53151;SDS011;39234;53.158;6.322;2022-08-06T02:46:12;5.00;;;2.40;;
53151;SDS011;39234;53.158;6.322;2022-08-06T02:48:46;8.05;;;2.65;;
53151;SDS011;39234;53.158;6.322;2022-08-06T02:51:20;9.23;;;2.80;;
53151;SDS011;39234;53.158;6.322;2022-08-06T02:54:11;5.32;;;2.28;;
53151;SDS011;39234;53.158;6.322;2022-08-06T02:56:55;4.97;;;2.50;;
53151;SDS011;39234;53.158;6.322;2022-08-06T02:59:27;8.32;;;2.90;;
53151;SDS011;39234;53.158;6.322;2022-08-06T03:01:56;4.97;;;2.30;;
53151;SDS011;39234;53.158;6.322;2022-08-06T03:04:25;6.07;;;2.53;;
53151;SDS011;39234;53.158;6.322;2022-08-06T03:06:53;4.47;;;2.30;;
53151;SDS011;39234;53.158;6.322;2022-08-06T03:09:21;6.07;;;2.70;;
53151;SDS011;39234;53.158;6.322;2022-08-06T03:11:47;3.80;;;2.20;;
53151;SDS011;39234;53.158;6.322;2022-08-06T03:14:15;5.03;;;2.53;;
53151;SDS011;39234;53.158;6.322;2022-08-06T03:16:44;5.38;;;2.65;;
53151;SDS011;39234;53.158;6.322;2022-08-06T03:19:11;7.20;;;2.50;;
53151;SDS011;39234;53.158;6.322;2022-08-06T03:21:39;5.20;;;3.08;;
53151;SDS011;39234;53.158;6.322;2022-08-06T03:24:07;3.65;;;2.20;;
53151;SDS011;39234;53.158;6.322;2022-08-06T03:26:34;3.25;;;2.22;;
53151;SDS011;39234;53.158;6.322;2022-08-06T03:29:02;5.30;;;2.22;;
53151;SDS011;39234;53.158;6.322;2022-08-06T03:31:29;4.50;;;2.05;;
53151;SDS011;39234;53.158;6.322;2022-08-06T03:33:56;3.75;;;2.05;;
53151;SDS011;39234;53.158;6.322;2022-08-06T03:36:22;4.35;;;2.10;;
53151;SDS011;39234;53.158;6.322;2022-08-06T03:39:02;3.72;;;2.20;;
53151;SDS011;39234;53.158;6.322;2022-08-06T03:41:32;3.50;;;2.03;;
53151;SDS011;39234;53.158;6.322;2022-08-06T03:44:00;2.60;;;1.83;;
53151;SDS011;39234;53.158;6.322;2022-08-06T03:46:30;3.63;;;2.00;;
53151;SDS011;39234;53.158;6.322;2022-08-06T03:49:08;4.40;;;2.15;;
53151;SDS011;39234;53.158;6.322;2022-08-06T03:51:39;4.18;;;2.33;;
53151;SDS011;39234;53.158;6.322;2022-08-06T03:54:07;2.85;;;1.90;;
53151;SDS011;39234;53.158;6.322;2022-08-06T03:56:35;5.57;;;2.08;;
53151;SDS011;39234;53.158;6.322;2022-08-06T03:59:05;4.55;;;2.10;;
53151;SDS011;39234;53.158;6.322;2022-08-06T04:01:36;6.22;;;2.35;;
53151;SDS011;39234;53.158;6.322;2022-08-06T04:04:02;4.57;;;2.65;;
53151;SDS011;39234;53.158;6.322;2022-08-06T04:06:29;4.97;;;2.53;;
53151;SDS011;39234;53.158;6.322;2022-08-06T04:08:57;4.10;;;2.42;;
53151;SDS011;39234;53.158;6.322;2022-08-06T04:11:25;4.50;;;3.00;;
53151;SDS011;39234;53.158;6.322;2022-08-06T04:13:51;5.03;;;2.75;;
53151;SDS011;39234;53.158;6.322;2022-08-06T04:16:18;4.55;;;2.72;;
53151;SDS011;39234;53.158;6.322;2022-08-06T04:18:45;6.40;;;2.60;;
53151;SDS011;39234;53.158;6.322;2022-08-06T04:21:16;5.22;;;3.05;;
53151;SDS011;39234;53.158;6.322;2022-08-06T04:23:44;6.40;;;3.13;;
53151;SDS011;39234;53.158;6.322;2022-08-06T04:26:12;6.80;;;2.78;;
53151;SDS011;39234;53.158;6.322;2022-08-06T04:28:40;4.45;;;2.53;;
53151;SDS011;39234;53.158;6.322;2022-08-06T04:31:08;6.20;;;2.70;;
53151;SDS011;39234;53.158;6.322;2022-08-06T04:33:37;5.45;;;2.33;;
53151;SDS011;39234;53.158;6.322;2022-08-06T04:36:05;3.60;;;2.40;;
53151;SDS011;39234;53.158;6.322;2022-08-06T04:38:32;4.50;;;2.65;;
53151;SDS011;39234;53.158;6.322;2022-08-06T04:41:01;6.40;;;2.55;;
53151;SDS011;39234;53.158;6.322;2022-08-06T04:43:27;4.60;;;2.60;;
53151;SDS011;39234;53.158;6.322;2022-08-06T04:45:54;4.82;;;2.30;;
53151;SDS011;39234;53.158;6.322;2022-08-06T04:48:21;6.22;;;2.78;;
53151;SDS011;39234;53.158;6.322;2022-08-06T04:50:48;4.60;;;2.50;;
53151;SDS011;39234;53.158;6.322;2022-08-06T04:53:15;6.80;;;2.10;;
53151;SDS011;39234;53.158;6.322;2022-08-06T04:55:43;4.75;;;2.50;;
53151;SDS011;39234;53.158;6.322;2022-08-06T04:58:10;5.57;;;2.53;;
53151;SDS011;39234;53.158;6.322;2022-08-06T05:00:39;6.68;;;2.72;;
53151;SDS011;39234;53.158;6.322;2022-08-06T05:03:07;8.10;;;3.22;;
53151;SDS011;39234;53.158;6.322;2022-08-06T05:05:42;6.65;;;2.78;;
53151;SDS011;39234;53.158;6.322;2022-08-06T05:08:13;5.80;;;2.80;;
53151;SDS011;39234;53.158;6.322;2022-08-06T05:10:41;7.05;;;3.15;;
53151;SDS011;39234;53.158;6.322;2022-08-06T05:13:29;10.65;;;3.22;;
53151;SDS011;39234;53.158;6.322;2022-08-06T05:15:59;9.35;;;3.00;;
53151;SDS011;39234;53.158;6.322;2022-08-06T05:18:34;10.15;;;2.60;;
53151;SDS011;39234;53.158;6.322;2022-08-06T05:21:03;6.60;;;2.90;;
53151;SDS011;39234;53.158;6.322;2022-08-06T05:23:44;6.55;;;3.22;;
53151;SDS011;39234;53.158;6.322;2022-08-06T05:26:12;6.03;;;2.43;;
53151;SDS011;39234;53.158;6.322;2022-08-06T05:28:38;5.80;;;2.67;;
53151;SDS011;39234;53.158;6.322;2022-08-06T05:31:05;6.80;;;2.60;;
53151;SDS011;39234;53.158;6.322;2022-08-06T05:33:35;10.38;;;2.65;;
53151;SDS011;39234;53.158;6.322;2022-08-06T05:36:04;7.07;;;3.03;;
53151;SDS011;39234;53.158;6.322;2022-08-06T05:38:36;8.43;;;2.80;;
53151;SDS011;39234;53.158;6.322;2022-08-06T05:41:04;5.03;;;2.30;;
53151;SDS011;39234;53.158;6.322;2022-08-06T05:43:31;4.13;;;2.15;;
53151;SDS011;39234;53.158;6.322;2022-08-06T05:45:57;6.95;;;2.92;;
53151;SDS011;39234;53.158;6.322;2022-08-06T05:48:27;7.43;;;2.38;;
53151;SDS011;39234;53.158;6.322;2022-08-06T05:50:58;5.78;;;2.20;;
53151;SDS011;39234;53.158;6.322;2022-08-06T05:53:29;3.72;;;2.00;;
53151;SDS011;39234;53.158;6.322;2022-08-06T05:56:10;3.83;;;1.73;;
53151;SDS011;39234;53.158;6.322;2022-08-06T05:58:39;4.57;;;1.63;;
53151;SDS011;39234;53.158;6.322;2022-08-06T06:01:09;3.53;;;1.67;;
53151;SDS011;39234;53.158;6.322;2022-08-06T06:03:37;6.32;;;1.45;;
53151;SDS011;39234;53.158;6.322;2022-08-06T06:06:05;5.00;;;1.40;;
53151;SDS011;39234;53.158;6.322;2022-08-06T06:08:34;6.70;;;1.42;;
53151;SDS011;39234;53.158;6.322;2022-08-06T06:11:01;4.40;;;1.45;;
53151;SDS011;39234;53.158;6.322;2022-08-06T06:13:28;5.53;;;1.50;;
53151;SDS011;39234;53.158;6.322;2022-08-06T06:19:10;4.53;;;1.20;;
53151;SDS011;39234;53.158;6.322;2022-08-06T06:27:02;2.60;;;1.20;;
53151;SDS011;39234;53.158;6.322;2022-08-06T06:29:40;2.72;;;1.08;;
53151;SDS011;39234;53.158;6.322;2022-08-06T06:35:15;4.20;;;1.35;;
53151;SDS011;39234;53.158;6.322;2022-08-06T06:40:34;5.78;;;0.98;;
53151;SDS011;39234;53.158;6.322;2022-08-06T06:45:56;5.03;;;0.93;;
53151;SDS011;39234;53.158;6.322;2022-08-06T06:48:35;6.03;;;1.10;;
53151;SDS011;39234;53.158;6.322;2022-08-06T06:51:10;3.25;;;0.82;;
53151;SDS011;39234;53.158;6.322;2022-08-06T06:53:44;3.05;;;0.80;;
53151;SDS011;39234;53.158;6.322;2022-08-06T06:56:11;2.10;;;0.60;;
53151;SDS011;39234;53.158;6.322;2022-08-06T06:58:42;3.78;;;0.88;;
53151;SDS011;39234;53.158;6.322;2022-08-06T07:01:14;4.15;;;1.27;;
53151;SDS011;39234;53.158;6.322;2022-08-06T07:03:41;2.05;;;0.82;;
53151;SDS011;39234;53.158;6.322;2022-08-06T07:06:08;4.88;;;0.80;;
53151;SDS011;39234;53.158;6.322;2022-08-06T07:08:41;2.67;;;0.80;;
53151;SDS011;39234;53.158;6.322;2022-08-06T07:11:14;2.55;;;0.82;;
53151;SDS011;39234;53.158;6.322;2022-08-06T07:13:43;3.92;;;0.93;;
53151;SDS011;39234;53.158;6.322;2022-08-06T07:16:12;3.17;;;0.80;;
53151;SDS011;39234;53.158;6.322;2022-08-06T07:18:41;4.32;;;0.80;;
53151;SDS011;39234;53.158;6.322;2022-08-06T07:21:08;3.17;;;0.73;;
53151;SDS011;39234;53.158;6.322;2022-08-06T07:23:35;3.67;;;0.95;;
53151;SDS011;39234;53.158;6.322;2022-08-06T07:26:01;3.10;;;0.98;;
53151;SDS011;39234;53.158;6.322;2022-08-06T07:28:29;3.20;;;1.20;;
53151;SDS011;39234;53.158;6.322;2022-08-06T07:30:56;5.32;;;1.10;;
53151;SDS011;39234;53.158;6.322;2022-08-06T07:33:24;4.47;;;1.33;;
53151;SDS011;39234;53.158;6.322;2022-08-06T07:35:50;2.53;;;1.10;;
53151;SDS011;39234;53.158;6.322;2022-08-06T07:38:19;7.03;;;1.38;;
53151;SDS011;39234;53.158;6.322;2022-08-06T07:40:53;3.03;;;1.13;;
53151;SDS011;39234;53.158;6.322;2022-08-06T07:43:24;4.20;;;1.40;;
53151;SDS011;39234;53.158;6.322;2022-08-06T07:45:54;3.27;;;1.10;;
53151;SDS011;39234;53.158;6.322;2022-08-06T07:48:26;3.28;;;1.20;;
53151;SDS011;39234;53.158;6.322;2022-08-06T07:50:58;3.58;;;1.02;;
53151;SDS011;39234;53.158;6.322;2022-08-06T07:53:24;6.43;;;1.10;;
53151;SDS011;39234;53.158;6.322;2022-08-06T07:55:51;6.22;;;1.20;;
53151;SDS011;39234;53.158;6.322;2022-08-06T07:58:17;3.65;;;1.17;;
53151;SDS011;39234;53.158;6.322;2022-08-06T08:00:44;2.63;;;0.98;;
53151;SDS011;39234;53.158;6.322;2022-08-06T08:03:15;4.53;;;1.05;;
53151;SDS011;39234;53.158;6.322;2022-08-06T08:06:03;4.82;;;1.10;;
53151;SDS011;39234;53.158;6.322;2022-08-06T08:08:48;4.50;;;0.98;;
53151;SDS011;39234;53.158;6.322;2022-08-06T08:11:35;3.33;;;1.02;;
53151;SDS011;39234;53.158;6.322;2022-08-06T08:14:06;3.10;;;1.03;;
53151;SDS011;39234;53.158;6.322;2022-08-06T08:16:33;2.80;;;0.70;;
53151;SDS011;39234;53.158;6.322;2022-08-06T08:19:00;1.83;;;0.60;;
53151;SDS011;39234;53.158;6.322;2022-08-06T08:21:25;3.38;;;0.80;;
53151;SDS011;39234;53.158;6.322;2022-08-06T08:23:52;11.27;;;1.27;;
53151;SDS011;39234;53.158;6.322;2022-08-06T08:26:19;5.53;;;1.25;;
53151;SDS011;39234;53.158;6.322;2022-08-06T08:28:48;3.25;;;1.13;;
53151;SDS011;39234;53.158;6.322;2022-08-06T08:31:14;4.07;;;1.50;;
53151;SDS011;39234;53.158;6.322;2022-08-06T08:33:39;5.65;;;1.42;;
53151;SDS011;39234;53.158;6.322;2022-08-06T08:36:07;7.70;;;2.00;;
53151;SDS011;39234;53.158;6.322;2022-08-06T08:38:34;4.07;;;1.70;;
53151;SDS011;39234;53.158;6.322;2022-08-06T08:41:04;3.60;;;1.52;;
53151;SDS011;39234;53.158;6.322;2022-08-06T08:43:43;3.25;;;1.35;;
53151;SDS011;39234;53.158;6.322;2022-08-06T08:46:15;7.28;;;1.70;;
53151;SDS011;39234;53.158;6.322;2022-08-06T08:48:42;5.63;;;1.30;;
53151;SDS011;39234;53.158;6.322;2022-08-06T08:51:08;6.18;;;1.40;;
53151;SDS011;39234;53.158;6.322;2022-08-06T08:53:39;6.53;;;1.17;;
53151;SDS011;39234;53.158;6.322;2022-08-06T08:56:11;5.00;;;1.60;;
53151;SDS011;39234;53.158;6.322;2022-08-06T08:58:38;6.63;;;1.10;;
53151;SDS011;39234;53.158;6.322;2022-08-06T09:01:05;6.30;;;1.40;;
53151;SDS011;39234;53.158;6.322;2022-08-06T09:03:38;6.05;;;1.45;;
53151;SDS011;39234;53.158;6.322;2022-08-06T09:06:05;4.67;;;1.10;;
53151;SDS011;39234;53.158;6.322;2022-08-06T09:08:31;3.83;;;1.00;;
53151;SDS011;39234;53.158;6.322;2022-08-06T09:11:01;4.43;;;1.10;;
53151;SDS011;39234;53.158;6.322;2022-08-06T09:13:28;4.82;;;1.17;;
53151;SDS011;39234;53.158;6.322;2022-08-06T09:15:54;6.57;;;1.23;;
53151;SDS011;39234;53.158;6.322;2022-08-06T09:18:21;4.78;;;1.48;;
53151;SDS011;39234;53.158;6.322;2022-08-06T09:20:48;3.72;;;1.10;;
53151;SDS011;39234;53.158;6.322;2022-08-06T09:23:15;4.28;;;1.10;;
53151;SDS011;39234;53.158;6.322;2022-08-06T09:25:44;3.00;;;1.08;;
53151;SDS011;39234;53.158;6.322;2022-08-06T09:31:04;5.05;;;1.40;;
53151;SDS011;39234;53.158;6.322;2022-08-06T09:33:33;4.15;;;1.33;;
53151;SDS011;39234;53.158;6.322;2022-08-06T09:36:08;5.38;;;1.50;;
53151;SDS011;39234;53.158;6.322;2022-08-06T09:38:51;4.15;;;1.23;;
53151;SDS011;39234;53.158;6.322;2022-08-06T09:41:19;4.95;;;1.52;;
53151;SDS011;39234;53.158;6.322;2022-08-06T09:43:48;6.30;;;1.40;;
53151;SDS011;39234;53.158;6.322;2022-08-06T09:46:16;3.92;;;1.30;;
53151;SDS011;39234;53.158;6.322;2022-08-06T09:48:59;3.97;;;1.40;;
53151;SDS011;39234;53.158;6.322;2022-08-06T09:51:27;4.00;;;1.50;;
53151;SDS011;39234;53.158;6.322;2022-08-06T09:53:55;5.95;;;1.63;;
53151;SDS011;39234;53.158;6.322;2022-08-06T09:56:22;13.32;;;3.42;;
53151;SDS011;39234;53.158;6.322;2022-08-06T09:58:56;8.20;;;2.35;;
53151;SDS011;39234;53.158;6.322;2022-08-06T10:01:24;2.92;;;1.30;;
53151;SDS011;39234;53.158;6.322;2022-08-06T10:03:50;3.78;;;1.30;;
53151;SDS011;39234;53.158;6.322;2022-08-06T10:06:18;3.65;;;1.55;;
53151;SDS011;39234;53.158;6.322;2022-08-06T10:08:48;6.45;;;1.73;;
53151;SDS011;39234;53.158;6.322;2022-08-06T10:11:15;5.38;;;1.80;;
53151;SDS011;39234;53.158;6.322;2022-08-06T10:13:59;4.00;;;1.60;;
53151;SDS011;39234;53.158;6.322;2022-08-06T10:16:25;5.20;;;1.50;;
53151;SDS011;39234;53.158;6.322;2022-08-06T10:18:58;3.40;;;1.33;;
53151;SDS011;39234;53.158;6.322;2022-08-06T10:21:28;3.47;;;1.80;;
53151;SDS011;39234;53.158;6.322;2022-08-06T10:24:00;4.72;;;1.65;;
53151;SDS011;39234;53.158;6.322;2022-08-06T10:26:32;4.40;;;1.55;;
53151;SDS011;39234;53.158;6.322;2022-08-06T10:29:03;4.53;;;1.58;;
53151;SDS011;39234;53.158;6.322;2022-08-06T10:31:31;5.03;;;1.85;;
53151;SDS011;39234;53.158;6.322;2022-08-06T10:34:11;3.47;;;1.63;;
53151;SDS011;39234;53.158;6.322;2022-08-06T10:36:44;6.75;;;1.60;;
53151;SDS011;39234;53.158;6.322;2022-08-06T10:39:26;3.95;;;1.50;;
53151;SDS011;39234;53.158;6.322;2022-08-06T10:41:56;5.38;;;1.95;;
53151;SDS011;39234;53.158;6.322;2022-08-06T10:44:23;3.58;;;1.70;;
53151;SDS011;39234;53.158;6.322;2022-08-06T10:46:52;6.75;;;1.70;;
53151;SDS011;39234;53.158;6.322;2022-08-06T10:49:20;3.72;;;1.80;;
53151;SDS011;39234;53.158;6.322;2022-08-06T10:51:49;3.45;;;1.80;;
53151;SDS011;39234;53.158;6.322;2022-08-06T10:54:16;6.05;;;1.80;;
53151;SDS011;39234;53.158;6.322;2022-08-06T10:56:44;7.38;;;2.25;;
53151;SDS011;39234;53.158;6.322;2022-08-06T10:59:12;3.83;;;2.20;;
53151;SDS011;39234;53.158;6.322;2022-08-06T11:04:49;3.28;;;1.95;;
53151;SDS011;39234;53.158;6.322;2022-08-06T11:09:57;5.78;;;2.13;;
53151;SDS011;39234;53.158;6.322;2022-08-06T11:12:51;4.63;;;2.03;;
53151;SDS011;39234;53.158;6.322;2022-08-06T11:15:33;3.88;;;1.90;;
53151;SDS011;39234;53.158;6.322;2022-08-06T11:18:04;3.63;;;2.00;;
53151;SDS011;39234;53.158;6.322;2022-08-06T11:23:04;5.72;;;2.20;;
53151;SDS011;39234;53.158;6.322;2022-08-06T11:25:53;4.20;;;2.13;;
53151;SDS011;39234;53.158;6.322;2022-08-06T11:30:53;4.20;;;2.13;;
53151;SDS011;39234;53.158;6.322;2022-08-06T11:35:58;3.55;;;1.90;;
53151;SDS011;39234;53.158;6.322;2022-08-06T11:41:17;6.28;;;2.40;;
53151;SDS011;39234;53.158;6.322;2022-08-06T11:46:22;4.57;;;2.40;;
53151;SDS011;39234;53.158;6.322;2022-08-06T11:56:33;5.55;;;2.20;;
53151;SDS011;39234;53.158;6.322;2022-08-06T11:59:12;6.47;;;2.30;;
53151;SDS011;39234;53.158;6.322;2022-08-06T12:01:45;3.88;;;2.22;;
53151;SDS011;39234;53.158;6.322;2022-08-06T12:07:16;3.50;;;2.08;;
53151;SDS011;39234;53.158;6.322;2022-08-06T12:14:57;3.85;;;2.33;;
53151;SDS011;39234;53.158;6.322;2022-08-06T12:17:26;4.43;;;1.98;;
53151;SDS011;39234;53.158;6.322;2022-08-06T12:19:53;4.18;;;2.17;;
53151;SDS011;39234;53.158;6.322;2022-08-06T12:22:22;3.78;;;2.20;;
53151;SDS011;39234;53.158;6.322;2022-08-06T12:24:49;3.42;;;1.95;;
53151;SDS011;39234;53.158;6.322;2022-08-06T12:27:19;4.50;;;2.42;;
53151;SDS011;39234;53.158;6.322;2022-08-06T12:29:48;3.92;;;2.22;;
53151;SDS011;39234;53.158;6.322;2022-08-06T12:32:23;4.20;;;2.17;;
53151;SDS011;39234;53.158;6.322;2022-08-06T12:34:51;5.40;;;2.30;;
53151;SDS011;39234;53.158;6.322;2022-08-06T12:37:18;6.28;;;2.50;;
53151;SDS011;39234;53.158;6.322;2022-08-06T12:39:44;5.75;;;2.67;;
53151;SDS011;39234;53.158;6.322;2022-08-06T12:42:30;6.80;;;2.20;;
53151;SDS011;39234;53.158;6.322;2022-08-06T12:44:56;4.72;;;2.30;;
53151;SDS011;39234;53.158;6.322;2022-08-06T12:47:22;6.35;;;2.83;;
53151;SDS011;39234;53.158;6.322;2022-08-06T12:49:51;6.25;;;2.50;;
53151;SDS011;39234;53.158;6.322;2022-08-06T12:52:19;4.00;;;2.45;;
53151;SDS011;39234;53.158;6.322;2022-08-06T12:54:46;4.40;;;2.53;;
53151;SDS011;39234;53.158;6.322;2022-08-06T12:57:22;4.47;;;2.25;;
53151;SDS011;39234;53.158;6.322;2022-08-06T12:59:56;3.35;;;2.10;;
53151;SDS011;39234;53.158;6.322;2022-08-06T13:02:22;5.57;;;2.38;;
53151;SDS011;39234;53.158;6.322;2022-08-06T13:04:50;5.65;;;2.53;;
53151;SDS011;39234;53.158;6.322;2022-08-06T13:07:20;4.30;;;2.10;;
53151;SDS011;39234;53.158;6.322;2022-08-06T13:09:47;5.10;;;2.63;;
53151;SDS011;39234;53.158;6.322;2022-08-06T13:12:14;4.88;;;2.05;;
53151;SDS011;39234;53.158;6.322;2022-08-06T13:14:53;5.55;;;2.90;;
53151;SDS011;39234;53.158;6.322;2022-08-06T13:17:23;7.40;;;3.10;;
53151;SDS011;39234;53.158;6.322;2022-08-06T13:22:17;5.32;;;2.58;;
53151;SDS011;39234;53.158;6.322;2022-08-06T13:24:43;7.05;;;2.75;;
53151;SDS011;39234;53.158;6.322;2022-08-06T13:27:11;6.00;;;3.00;;
53151;SDS011;39234;53.158;6.322;2022-08-06T13:29:37;8.07;;;2.50;;
53151;SDS011;39234;53.158;6.322;2022-08-06T13:32:04;4.78;;;2.33;;
53151;SDS011;39234;53.158;6.322;2022-08-06T13:34:48;5.30;;;2.67;;
53151;SDS011;39234;53.158;6.322;2022-08-06T13:37:17;4.82;;;1.85;;
53151;SDS011;39234;53.158;6.322;2022-08-06T13:40:03;3.92;;;2.10;;
53151;SDS011;39234;53.158;6.322;2022-08-06T13:42:29;5.05;;;2.17;;
53151;SDS011;39234;53.158;6.322;2022-08-06T13:44:54;5.63;;;2.30;;
53151;SDS011;39234;53.158;6.322;2022-08-06T13:47:27;6.90;;;2.20;;
53151;SDS011;39234;53.158;6.322;2022-08-06T13:49:54;5.53;;;2.05;;
53151;SDS011;39234;53.158;6.322;2022-08-06T13:52:21;4.90;;;2.40;;
53151;SDS011;39234;53.158;6.322;2022-08-06T13:54:47;5.40;;;2.38;;
53151;SDS011;39234;53.158;6.322;2022-08-06T13:57:13;7.20;;;2.78;;
53151;SDS011;39234;53.158;6.322;2022-08-06T13:59:42;5.95;;;2.35;;
53151;SDS011;39234;53.158;6.322;2022-08-06T14:02:08;5.07;;;1.98;;
53151;SDS011;39234;53.158;6.322;2022-08-06T14:04:34;3.65;;;2.20;;
53151;SDS011;39234;53.158;6.322;2022-08-06T14:07:00;5.25;;;2.50;;
53151;SDS011;39234;53.158;6.322;2022-08-06T14:09:28;6.65;;;2.20;;
53151;SDS011;39234;53.158;6.322;2022-08-06T14:11:56;3.83;;;2.10;;
53151;SDS011;39234;53.158;6.322;2022-08-06T14:14:24;4.93;;;1.95;;
53151;SDS011;39234;53.158;6.322;2022-08-06T14:16:57;5.15;;;1.88;;
53151;SDS011;39234;53.158;6.322;2022-08-06T14:19:24;4.60;;;2.08;;
53151;SDS011;39234;53.158;6.322;2022-08-06T14:21:50;4.15;;;1.95;;
53151;SDS011;39234;53.158;6.322;2022-08-06T14:24:19;3.60;;;1.92;;
53151;SDS011;39234;53.158;6.322;2022-08-06T14:26:44;4.55;;;2.10;;
53151;SDS011;39234;53.158;6.322;2022-08-06T14:29:10;3.35;;;1.85;;
53151;SDS011;39234;53.158;6.322;2022-08-06T14:31:36;5.53;;;2.45;;
53151;SDS011;39234;53.158;6.322;2022-08-06T14:34:02;4.07;;;2.03;;
53151;SDS011;39234;53.158;6.322;2022-08-06T14:36:29;3.63;;;2.13;;
53151;SDS011;39234;53.158;6.322;2022-08-06T14:38:56;5.88;;;2.20;;
53151;SDS011;39234;53.158;6.322;2022-08-06T14:41:22;5.15;;;1.73;;
53151;SDS011;39234;53.158;6.322;2022-08-06T14:44:07;6.18;;;2.60;;
53151;SDS011;39234;53.158;6.322;2022-08-06T14:46:52;6.20;;;1.98;;
53151;SDS011;39234;53.158;6.322;2022-08-06T14:49:18;3.97;;;2.00;;
53151;SDS011;39234;53.158;6.322;2022-08-06T14:51:44;6.03;;;2.05;;
53151;SDS011;39234;53.158;6.322;2022-08-06T14:54:09;3.08;;;2.08;;
53151;SDS011;39234;53.158;6.322;2022-08-06T14:56:35;5.55;;;2.17;;
53151;SDS011;39234;53.158;6.322;2022-08-06T14:59:03;7.32;;;2.20;;
53151;SDS011;39234;53.158;6.322;2022-08-06T15:01:30;3.70;;;2.20;;
53151;SDS011;39234;53.158;6.322;2022-08-06T15:03:55;6.82;;;2.40;;
53151;SDS011;39234;53.158;6.322;2022-08-06T15:06:23;5.63;;;2.00;;
53151;SDS011;39234;53.158;6.322;2022-08-06T15:08:48;6.78;;;2.17;;
53151;SDS011;39234;53.158;6.322;2022-08-06T15:11:14;5.75;;;2.20;;
53151;SDS011;39234;53.158;6.322;2022-08-06T15:13:40;4.22;;;2.35;;
53151;SDS011;39234;53.158;6.322;2022-08-06T15:16:06;7.03;;;2.22;;
53151;SDS011;39234;53.158;6.322;2022-08-06T15:18:32;4.85;;;2.13;;
53151;SDS011;39234;53.158;6.322;2022-08-06T15:20:58;6.78;;;2.30;;
53151;SDS011;39234;53.158;6.322;2022-08-06T15:23:24;5.65;;;2.72;;
53151;SDS011;39234;53.158;6.322;2022-08-06T15:25:51;5.60;;;1.95;;
53151;SDS011;39234;53.158;6.322;2022-08-06T15:28:17;7.68;;;2.53;;
53151;SDS011;39234;53.158;6.322;2022-08-06T15:30:43;4.20;;;2.00;;
53151;SDS011;39234;53.158;6.322;2022-08-06T15:33:09;4.80;;;2.13;;
53151;SDS011;39234;53.158;6.322;2022-08-06T15:35:35;3.92;;;2.17;;
53151;SDS011;39234;53.158;6.322;2022-08-06T15:38:00;4.47;;;2.40;;
53151;SDS011;39234;53.158;6.322;2022-08-06T15:40:28;4.22;;;2.03;;
53151;SDS011;39234;53.158;6.322;2022-08-06T15:42:54;3.95;;;2.30;;
53151;SDS011;39234;53.158;6.322;2022-08-06T15:45:20;4.85;;;2.10;;
53151;SDS011;39234;53.158;6.322;2022-08-06T15:47:45;3.53;;;2.10;;
53151;SDS011;39234;53.158;6.322;2022-08-06T15:50:11;4.55;;;2.15;;
53151;SDS011;39234;53.158;6.322;2022-08-06T15:52:37;6.50;;;2.97;;
53151;SDS011;39234;53.158;6.322;2022-08-06T15:55:05;3.75;;;2.22;;
53151;SDS011;39234;53.158;6.322;2022-08-06T15:57:31;5.50;;;2.58;;
53151;SDS011;39234;53.158;6.322;2022-08-06T15:59:57;4.30;;;2.20;;
53151;SDS011;39234;53.158;6.322;2022-08-06T16:02:24;3.92;;;2.22;;
53151;SDS011;39234;53.158;6.322;2022-08-06T16:04:51;4.32;;;2.03;;
53151;SDS011;39234;53.158;6.322;2022-08-06T16:07:17;3.78;;;1.90;;
53151;SDS011;39234;53.158;6.322;2022-08-06T16:09:46;4.45;;;2.40;;